createdAt,value
2018-11-05T00:00:47.772Z,36.10
2018-11-05T00:03:22.798Z,36.30
2018-11-05T00:05:50.577Z,36.40
2018-11-05T00:08:18.437Z,36.40
2018-11-05T00:10:49.492Z,36.50
2018-11-05T00:13:17.954Z,36.70
2018-11-05T00:15:46.732Z,36.50
2018-11-05T00:18:15.325Z,36.70
2018-11-05T00:20:43.474Z,36.50
2018-11-05T00:23:11.536Z,36.30
2018-11-05T00:25:41.442Z,36.40
2018-11-05T00:28:09.316Z,36.50
2018-11-05T00:30:37.371Z,36.50
2018-11-05T00:33:06.377Z,36.70
2018-11-05T00:35:34.697Z,36.70
2018-11-05T00:38:03.506Z,36.90
2018-11-05T00:40:31.479Z,36.80
2018-11-05T00:42:59.706Z,36.70
2018-11-05T00:45:29.202Z,36.70
2018-11-05T00:47:57.103Z,36.90
2018-11-05T00:50:25.225Z,36.90
2018-11-05T00:52:53.156Z,37.00
2018-11-05T00:55:39.466Z,36.90
2018-11-05T00:58:07.546Z,36.90
2018-11-05T01:00:37.396Z,37.00
2018-11-05T01:03:05.346Z,37.10
2018-11-05T01:05:34.458Z,37.20
2018-11-05T01:08:08.933Z,37.30
2018-11-05T01:10:36.844Z,37.40
2018-11-05T01:13:04.948Z,37.50
2018-11-05T01:15:33.461Z,37.50
2018-11-05T01:18:01.637Z,37.60
2018-11-05T01:20:35.939Z,37.50
2018-11-05T01:23:03.866Z,37.40
2018-11-05T01:25:37.934Z,37.50
2018-11-05T01:28:07.394Z,37.50
2018-11-05T01:30:35.377Z,37.30
2018-11-05T01:33:03.669Z,38.00
2018-11-05T01:35:32.197Z,38.40
2018-11-05T01:38:00.507Z,38.40
2018-11-05T01:40:29.369Z,38.00
2018-11-05T01:42:58.323Z,38.40
2018-11-05T01:45:26.456Z,37.90
2018-11-05T01:47:58.058Z,38.40
2018-11-05T01:50:25.889Z,38.40
2018-11-05T01:52:53.783Z,38.30
2018-11-05T01:55:21.482Z,38.30
2018-11-05T01:57:49.475Z,38.30
2018-11-05T02:00:17.703Z,38.40
2018-11-05T02:02:47.716Z,38.40
2018-11-05T02:05:16.361Z,38.40
2018-11-05T02:07:44.884Z,38.40
2018-11-05T02:10:15.210Z,38.40
2018-11-05T02:12:47.621Z,38.40
2018-11-05T02:15:16.134Z,38.40
2018-11-05T02:17:45.649Z,38.40
2018-11-05T02:20:14.341Z,38.50
2018-11-05T02:22:48.008Z,38.40
2018-11-05T02:25:16.479Z,38.40
2018-11-05T02:27:44.937Z,38.30
2018-11-05T02:30:16.672Z,38.30
2018-11-05T02:32:45.375Z,38.30
2018-11-05T02:35:19.123Z,38.30
2018-11-05T02:37:47.425Z,38.40
2018-11-05T02:40:16.560Z,38.40
2018-11-05T02:42:45.445Z,38.30
2018-11-05T02:45:14.248Z,38.30
2018-11-05T02:47:42.542Z,38.30
2018-11-05T02:50:11.537Z,38.30
2018-11-05T02:52:40.835Z,38.30
2018-11-05T02:55:08.923Z,38.40
2018-11-05T03:00:21.604Z,38.30
2018-11-05T03:02:49.799Z,38.30
2018-11-05T03:05:20.812Z,38.30
2018-11-05T03:07:49.380Z,38.90
2018-11-05T03:10:18.063Z,38.60
2018-11-05T03:12:48.555Z,38.60
2018-11-05T03:15:18.088Z,38.80
2018-11-05T03:17:47.136Z,38.40
2018-11-05T03:20:15.776Z,38.50
2018-11-05T03:22:43.994Z,38.50
2018-11-05T03:25:11.938Z,38.70
2018-11-05T03:27:40.470Z,38.80
2018-11-05T03:30:10.595Z,38.70
2018-11-05T03:32:39.502Z,38.90
2018-11-05T03:35:08.779Z,38.90
2018-11-05T03:37:37.048Z,38.80
2018-11-05T03:40:06.046Z,38.80
2018-11-05T03:42:33.982Z,38.80
2018-11-05T03:45:01.729Z,38.60
2018-11-05T03:47:29.609Z,39.00
2018-11-05T03:52:35.398Z,39.10
2018-11-05T03:55:12.399Z,38.90
2018-11-05T03:57:46.718Z,39.00
2018-11-05T04:00:15.435Z,39.20
2018-11-05T04:02:43.388Z,39.10
2018-11-05T04:05:11.309Z,38.90
2018-11-05T04:07:40.058Z,38.90
2018-11-05T04:10:09.104Z,39.10
2018-11-05T04:12:38.878Z,39.00
2018-11-05T04:15:07.215Z,39.20
2018-11-05T04:17:35.476Z,38.80
2018-11-05T04:20:04.255Z,38.80
2018-11-05T04:22:33.785Z,38.60
2018-11-05T04:25:06.171Z,38.60
2018-11-05T04:27:34.200Z,38.50
2018-11-05T04:30:02.325Z,38.50
2018-11-05T04:32:30.202Z,38.50
2018-11-05T04:34:58.416Z,38.50
2018-11-05T04:37:27.095Z,38.50
2018-11-05T04:39:55.292Z,39.20
2018-11-05T04:42:23.440Z,38.50
2018-11-05T04:44:51.457Z,38.70
2018-11-05T04:47:19.253Z,38.60
2018-11-05T04:49:47.130Z,38.60
2018-11-05T04:52:16.667Z,38.60
2018-11-05T04:54:54.820Z,38.60
2018-11-05T04:57:22.757Z,38.60
2018-11-05T04:59:51.443Z,38.90
2018-11-05T05:02:19.468Z,39.20
2018-11-05T05:04:48.105Z,39.20
2018-11-05T05:07:16.061Z,39.40
2018-11-05T05:09:44.035Z,39.00
2018-11-05T05:12:12.171Z,39.20
2018-11-05T05:14:40.347Z,39.20
2018-11-05T05:17:08.387Z,40.00
2018-11-05T05:19:36.689Z,38.90
2018-11-05T05:22:04.708Z,38.50
2018-11-05T05:24:32.424Z,38.80
2018-11-05T05:27:00.235Z,39.10
2018-11-05T05:29:28.143Z,38.80
2018-11-05T05:31:56.277Z,38.50
2018-11-05T05:34:24.389Z,38.70
2018-11-05T05:36:57.470Z,38.70
2018-11-05T05:39:26.303Z,38.60
2018-11-05T05:41:54.681Z,38.70
2018-11-05T05:44:22.355Z,39.40
2018-11-05T05:46:50.744Z,38.50
2018-11-05T05:49:19.027Z,38.50
2018-11-05T05:51:47.318Z,38.60
2018-11-05T05:54:18.400Z,38.60
2018-11-05T05:56:46.263Z,38.60
2018-11-05T05:59:14.237Z,39.20
2018-11-05T06:01:42.589Z,38.50
2018-11-05T06:04:10.446Z,38.50
2018-11-05T06:06:38.317Z,38.50
2018-11-05T06:09:08.631Z,38.60
2018-11-05T06:11:38.810Z,38.60
2018-11-05T06:14:29.594Z,38.60
2018-11-05T06:16:59.727Z,38.60
2018-11-05T06:22:21.983Z,38.70
2018-11-05T06:25:07.110Z,38.60
2018-11-05T06:27:37.386Z,38.60
2018-11-05T06:30:19.156Z,38.60
2018-11-05T06:32:48.199Z,38.60
2018-11-05T06:35:16.331Z,38.70
2018-11-05T06:37:47.540Z,38.70
2018-11-05T06:40:17.105Z,38.60
2018-11-05T06:42:46.038Z,38.60
2018-11-05T06:45:15.294Z,38.60
2018-11-05T06:47:43.966Z,38.70
2018-11-05T06:50:14.364Z,38.60
2018-11-05T06:52:43.492Z,38.60
2018-11-05T06:55:12.033Z,38.60
2018-11-05T06:57:41.029Z,38.60
2018-11-05T07:00:19.428Z,38.70
2018-11-05T07:02:48.790Z,38.70
2018-11-05T07:05:16.654Z,38.70
2018-11-05T07:07:46.524Z,38.70
2018-11-05T07:10:15.252Z,38.70
2018-11-05T07:12:43.788Z,38.70
2018-11-05T07:15:12.816Z,38.70
2018-11-05T07:17:43.547Z,38.70
2018-11-05T07:20:13.381Z,38.70
2018-11-05T07:22:41.467Z,38.70
2018-11-05T07:25:11.424Z,38.70
2018-11-05T07:27:41.366Z,38.70
2018-11-05T07:30:20.505Z,38.70
2018-11-05T07:32:50.088Z,38.70
2018-11-05T07:37:54.779Z,38.70
2018-11-05T07:40:22.581Z,38.60
2018-11-05T07:42:50.526Z,38.70
2018-11-05T07:45:20.526Z,38.60
2018-11-05T07:47:48.611Z,38.60
2018-11-05T07:50:18.429Z,38.60
2018-11-05T07:52:46.264Z,38.60
2018-11-05T07:55:32.723Z,38.70
2018-11-05T07:58:00.494Z,38.50
2018-11-05T08:00:34.098Z,38.60
2018-11-05T08:03:02.228Z,38.50
2018-11-05T08:05:29.785Z,38.60
2018-11-05T08:07:57.623Z,38.60
2018-11-05T08:10:28.175Z,38.70
2018-11-05T08:12:56.647Z,38.50
2018-11-05T08:15:27.862Z,38.70
2018-11-05T08:17:56.071Z,39.40
2018-11-05T08:20:27.856Z,38.70
2018-11-05T08:23:03.946Z,38.70
2018-11-05T08:25:34.341Z,38.70
2018-11-05T08:28:02.777Z,38.70
2018-11-05T08:30:30.506Z,38.60
2018-11-05T08:32:58.651Z,38.40
2018-11-05T08:35:26.544Z,38.60
2018-11-05T08:37:54.766Z,38.80
2018-11-05T08:40:24.541Z,38.60
2018-11-05T08:42:54.549Z,38.50
2018-11-05T08:45:24.201Z,38.60
2018-11-05T08:47:52.084Z,38.70
2018-11-05T08:50:20.990Z,38.40
2018-11-05T08:52:50.140Z,37.90
2018-11-05T08:55:21.871Z,38.10
2018-11-05T08:57:51.212Z,37.90
2018-11-05T09:00:25.619Z,37.80
2018-11-05T09:02:53.985Z,37.60
2018-11-05T09:05:22.644Z,37.10
2018-11-05T09:08:07.756Z,37.40
2018-11-05T09:10:36.871Z,37.50
2018-11-05T09:13:07.472Z,37.00
2018-11-05T09:15:36.804Z,36.90
2018-11-05T09:18:05.918Z,37.00
2018-11-05T09:20:39.887Z,37.00
2018-11-05T09:23:08.397Z,37.10
2018-11-05T09:25:37.140Z,37.60
2018-11-05T09:28:06.909Z,37.50
2018-11-05T09:30:35.213Z,37.20
2018-11-05T09:33:03.265Z,38.00
2018-11-05T09:35:31.384Z,37.00
2018-11-05T09:37:59.193Z,36.80
2018-11-05T09:40:27.166Z,36.80
2018-11-05T09:42:55.554Z,36.80
2018-11-05T09:45:25.068Z,36.80
2018-11-05T09:47:53.827Z,36.40
2018-11-05T09:50:23.403Z,36.60
2018-11-05T09:52:52.008Z,36.30
2018-11-05T09:55:26.029Z,36.60
2018-11-05T09:57:54.244Z,36.40
2018-11-05T10:00:26.075Z,36.20
2018-11-05T10:02:56.256Z,36.10
2018-11-05T10:05:24.506Z,35.90
2018-11-05T10:07:52.261Z,36.90
2018-11-05T10:10:20.111Z,36.20
2018-11-05T10:12:48.043Z,36.00
2018-11-05T10:15:16.875Z,36.10
2018-11-05T10:17:44.627Z,36.10
2018-11-05T10:20:22.346Z,36.00
2018-11-05T10:22:52.325Z,36.30
2018-11-05T10:25:20.795Z,35.80
2018-11-05T10:27:49.902Z,36.00
2018-11-05T10:30:19.228Z,36.20
2018-11-05T10:32:47.227Z,35.90
2018-11-05T10:35:15.774Z,36.00
2018-11-05T10:37:43.594Z,35.80
2018-11-05T10:40:13.211Z,36.20
2018-11-05T10:42:43.685Z,36.30
2018-11-05T10:45:13.067Z,35.90
2018-11-05T10:47:40.908Z,35.70
2018-11-05T10:50:17.311Z,35.60
2018-11-05T10:52:49.097Z,35.80
2018-11-05T10:55:17.061Z,35.80
2018-11-05T10:57:46.660Z,35.50
2018-11-05T11:00:27.240Z,35.20
2018-11-05T11:03:01.613Z,35.10
2018-11-05T11:05:31.343Z,35.10
2018-11-05T11:07:59.946Z,35.00
2018-11-05T11:10:29.115Z,35.20
2018-11-05T11:12:57.098Z,35.00
2018-11-05T11:15:25.513Z,35.70
2018-11-05T11:18:01.377Z,35.70
2018-11-05T11:20:30.666Z,35.50
2018-11-05T11:22:59.600Z,35.00
2018-11-05T11:25:27.806Z,34.60
2018-11-05T11:27:55.861Z,35.00
2018-11-05T11:30:25.659Z,35.00
2018-11-05T11:32:54.779Z,35.00
2018-11-05T11:35:22.719Z,34.80
2018-11-05T11:37:50.795Z,34.80
2018-11-05T11:40:22.941Z,34.60
2018-11-05T11:42:52.821Z,35.00
2018-11-05T11:48:27.160Z,34.80
2018-11-05T11:50:56.407Z,34.70
2018-11-05T11:53:24.944Z,34.60
2018-11-05T11:55:53.199Z,34.70
2018-11-05T11:58:25.976Z,34.60
2018-11-05T12:00:55.697Z,34.90
2018-11-05T12:03:24.379Z,34.90
2018-11-05T12:06:06.008Z,34.50
2018-11-05T12:08:34.977Z,34.70
2018-11-05T12:11:05.380Z,34.70
2018-11-05T12:13:34.801Z,34.80
2018-11-05T12:16:04.310Z,35.10
2018-11-05T12:21:21.119Z,35.20
2018-11-05T12:23:51.713Z,34.70
2018-11-05T12:26:20.670Z,35.00
2018-11-05T12:28:50.951Z,35.00
2018-11-05T12:31:19.842Z,34.80
2018-11-05T12:33:48.392Z,35.10
2018-11-05T12:36:39.290Z,35.60
2018-11-05T12:39:14.867Z,35.00
2018-11-05T12:41:48.984Z,35.00
2018-11-05T12:44:17.306Z,34.80
2018-11-05T12:46:46.283Z,34.60
2018-11-05T12:49:15.113Z,34.50
2018-11-05T12:51:43.449Z,34.50
2018-11-05T12:54:11.324Z,34.30
2018-11-05T12:56:39.200Z,34.40
2018-11-05T12:59:10.270Z,34.10
2018-11-05T13:01:38.454Z,34.40
2018-11-05T13:04:06.864Z,34.20
2018-11-05T13:06:35.206Z,34.40
2018-11-05T13:09:06.115Z,34.20
2018-11-05T13:11:34.062Z,34.70
2018-11-05T13:14:08.455Z,34.60
2018-11-05T13:16:36.669Z,34.40
2018-11-05T13:19:04.624Z,34.40
2018-11-05T13:21:34.831Z,34.20
2018-11-05T13:24:03.558Z,34.20
2018-11-05T13:26:32.341Z,34.00
2018-11-05T13:29:00.582Z,34.40
2018-11-05T13:31:28.295Z,35.50
2018-11-05T13:33:56.013Z,34.50
2018-11-05T13:36:24.010Z,34.40
2018-11-05T13:38:51.882Z,34.20
2018-11-05T13:41:24.428Z,34.10
2018-11-05T13:43:52.647Z,34.80
2018-11-05T13:46:20.756Z,34.30
2018-11-05T13:48:50.112Z,34.60
2018-11-05T13:51:19.367Z,34.10
2018-11-05T13:53:47.217Z,33.50
2018-11-05T13:56:19.026Z,33.70
2018-11-05T13:58:46.674Z,34.20
2018-11-05T14:01:14.559Z,34.00
2018-11-05T14:03:42.457Z,34.20
2018-11-05T14:06:10.139Z,33.50
2018-11-05T14:08:37.975Z,33.20
2018-11-05T14:11:06.225Z,32.90
2018-11-05T14:13:36.483Z,32.80
2018-11-05T14:16:04.816Z,32.70
2018-11-05T14:18:35.309Z,32.70
2018-11-05T14:23:58.563Z,32.60
2018-11-05T14:26:27.668Z,32.60
2018-11-05T14:28:56.496Z,32.60
2018-11-05T14:31:25.185Z,32.40
2018-11-05T14:33:53.201Z,32.50
2018-11-05T14:36:20.979Z,32.20
2018-11-05T14:38:52.601Z,32.50
2018-11-05T14:41:20.363Z,32.40
2018-11-05T14:43:50.171Z,32.40
2018-11-05T14:46:17.987Z,32.30
2018-11-05T14:48:47.684Z,32.50
2018-11-05T14:51:16.533Z,32.50
2018-11-05T14:56:18.893Z,32.90
2018-11-05T14:58:53.329Z,32.70
2018-11-05T15:01:27.839Z,32.80
2018-11-05T15:03:55.790Z,32.80
2018-11-05T15:06:23.924Z,32.50
2018-11-05T15:08:51.728Z,32.90
2018-11-05T15:11:19.467Z,33.00
2018-11-05T15:13:48.060Z,33.10
2018-11-05T15:16:22.111Z,33.40
2018-11-05T15:18:50.631Z,33.60
2018-11-05T15:21:18.429Z,33.10
2018-11-05T15:23:46.155Z,33.30
2018-11-05T15:26:13.888Z,33.40
2018-11-05T15:28:41.539Z,33.40
2018-11-05T15:31:12.606Z,33.20
2018-11-05T15:33:40.624Z,33.10
2018-11-05T15:36:08.345Z,33.30
2018-11-05T15:38:37.826Z,33.60
2018-11-05T15:41:05.634Z,33.40
2018-11-05T15:43:33.784Z,33.50
2018-11-05T15:46:01.571Z,33.70
2018-11-05T15:48:30.432Z,33.60
2018-11-05T15:50:58.204Z,33.80
2018-11-05T15:53:26.697Z,34.00
2018-11-05T15:55:54.706Z,33.70
2018-11-05T15:58:28.423Z,33.80
2018-11-05T16:00:56.316Z,34.20
2018-11-05T16:03:23.990Z,33.90
2018-11-05T16:05:53.575Z,34.00
2018-11-05T16:08:21.407Z,34.10
2018-11-05T16:10:49.319Z,34.00
2018-11-05T16:13:20.115Z,34.40
2018-11-05T16:15:48.277Z,34.10
2018-11-05T16:18:17.025Z,34.30
2018-11-05T16:20:59.140Z,34.70
2018-11-05T16:23:27.193Z,34.80
2018-11-05T16:25:55.663Z,34.90
2018-11-05T16:28:24.236Z,35.10
2018-11-05T16:30:52.280Z,35.20
2018-11-05T16:33:20.561Z,35.20
2018-11-05T16:35:51.317Z,35.20
2018-11-05T16:38:19.486Z,35.30
2018-11-05T16:40:47.624Z,35.20
2018-11-05T16:45:23.754Z,35.40
2018-11-05T16:47:52.542Z,35.50
2018-11-05T16:50:28.777Z,35.70
2018-11-05T16:52:57.711Z,35.80
2018-11-05T16:55:34.970Z,36.00
2018-11-05T16:58:04.975Z,36.10
2018-11-05T17:00:35.028Z,36.20
2018-11-05T17:03:03.345Z,36.20
2018-11-05T17:05:36.441Z,36.40
2018-11-05T17:08:05.243Z,36.20
2018-11-05T17:10:33.715Z,36.30
2018-11-05T17:13:03.035Z,36.40
2018-11-05T17:18:16.147Z,36.60
2018-11-05T17:20:44.063Z,36.80
2018-11-05T17:23:12.298Z,36.70
2018-11-05T17:25:42.384Z,36.80
2018-11-05T17:28:10.763Z,36.80
2018-11-05T17:30:39.241Z,36.90
2018-11-05T17:33:07.247Z,37.00
2018-11-05T17:35:35.272Z,37.10
2018-11-05T17:38:03.026Z,37.10
2018-11-05T17:40:36.367Z,37.30
2018-11-05T17:43:05.074Z,37.40
2018-11-05T17:45:33.394Z,37.30
2018-11-05T17:48:02.377Z,37.40
2018-11-05T17:50:31.657Z,37.30
2018-11-05T17:53:00.259Z,37.20
2018-11-05T17:55:29.306Z,37.20
2018-11-05T17:57:59.038Z,37.40
2018-11-05T18:00:27.146Z,37.30
2018-11-05T18:02:59.443Z,37.20
2018-11-05T18:05:27.523Z,37.10
2018-11-05T18:07:55.874Z,37.00
2018-11-05T18:10:24.007Z,36.90
2018-11-05T18:12:52.233Z,37.00
2018-11-05T18:15:20.266Z,36.90
2018-11-05T18:17:50.801Z,36.90
2018-11-05T18:20:27.993Z,36.50
2018-11-05T18:22:56.188Z,36.50
2018-11-05T18:25:24.755Z,36.60
2018-11-05T18:27:53.585Z,36.60
2018-11-05T18:30:22.528Z,36.50
2018-11-05T18:32:50.350Z,36.60
2018-11-05T18:35:18.717Z,36.50
2018-11-05T18:37:49.701Z,36.50
2018-11-05T18:40:17.698Z,36.40
2018-11-05T18:42:45.790Z,36.30
2018-11-05T18:45:13.982Z,36.20
2018-11-05T18:47:42.280Z,36.30
2018-11-05T18:50:23.948Z,36.20
2018-11-05T18:52:51.999Z,36.00
2018-11-05T18:55:22.287Z,36.30
2018-11-05T18:58:05.068Z,36.30
2018-11-05T19:00:45.444Z,36.00
2018-11-05T19:03:13.373Z,36.10
2018-11-05T19:05:43.472Z,36.00
2018-11-05T19:08:11.636Z,36.10
2018-11-05T19:10:39.552Z,36.20
2018-11-05T19:13:08.360Z,36.00
2018-11-05T19:15:36.617Z,35.90
2018-11-05T19:21:08.376Z,35.60
2018-11-05T19:23:36.613Z,35.40
2018-11-05T19:26:43.488Z,35.40
2018-11-05T19:29:11.765Z,35.70
2018-11-05T19:31:40.372Z,35.60
2018-11-05T19:34:27.264Z,35.80
2018-11-05T19:36:59.783Z,35.60
2018-11-05T19:39:28.008Z,35.40
2018-11-05T19:42:10.152Z,35.50
2018-11-05T19:44:38.645Z,35.40
2018-11-05T19:47:07.380Z,35.30
2018-11-05T19:49:37.397Z,35.20
2018-11-05T19:52:07.348Z,35.30
2018-11-05T19:54:36.188Z,35.20
2018-11-05T19:57:06.039Z,35.00
2018-11-05T19:59:35.949Z,34.70
2018-11-05T20:02:05.166Z,34.50
2018-11-05T20:04:33.811Z,34.70
2018-11-05T20:07:02.324Z,34.90
2018-11-05T20:12:33.435Z,34.80
2018-11-05T20:15:05.873Z,34.60
2018-11-05T20:20:37.616Z,34.20
2018-11-05T20:23:06.728Z,34.20
2018-11-05T20:25:37.357Z,34.50
2018-11-05T20:28:09.322Z,34.40
2018-11-05T20:30:38.965Z,34.40
2018-11-05T20:33:29.505Z,34.30
2018-11-05T20:36:19.888Z,34.00
2018-11-05T20:38:55.626Z,33.90
2018-11-05T20:41:33.010Z,33.80
2018-11-05T20:46:59.889Z,33.70
2018-11-05T20:49:28.968Z,33.80
2018-11-05T20:51:57.983Z,33.50
2018-11-05T20:54:47.973Z,33.50
2018-11-05T21:03:04.726Z,33.70
2018-11-05T21:05:32.942Z,33.80
2018-11-05T21:08:01.133Z,33.60
2018-11-05T21:10:44.679Z,33.40
2018-11-05T21:13:13.318Z,33.50
2018-11-05T21:15:41.251Z,33.10
2018-11-05T21:18:14.831Z,32.90
2018-11-05T21:20:42.763Z,32.90
2018-11-05T21:23:15.268Z,33.00
2018-11-05T21:25:43.468Z,33.20
2018-11-05T21:28:12.021Z,33.00
2018-11-05T21:33:33.500Z,32.90
2018-11-05T21:36:15.837Z,32.80
2018-11-05T21:38:44.633Z,32.90
2018-11-05T21:41:29.406Z,32.80
2018-11-05T21:46:53.048Z,32.90
2018-11-05T21:52:58.830Z,33.20
2018-11-05T22:02:02.006Z,33.40
2018-11-05T22:04:48.605Z,32.80
2018-11-05T22:07:16.948Z,33.00
2018-11-05T22:09:47.228Z,33.00
2018-11-05T22:12:15.907Z,33.20
2018-11-05T22:14:44.033Z,33.20
2018-11-05T22:17:12.150Z,33.70
2018-11-05T22:19:40.784Z,33.70
2018-11-05T22:22:19.505Z,33.70
2018-11-05T22:25:29.076Z,33.50
2018-11-05T22:27:57.297Z,33.70
2018-11-05T22:30:51.573Z,34.00
2018-11-05T22:33:31.519Z,34.00
2018-11-05T22:36:01.339Z,33.80
2018-11-05T22:38:45.013Z,33.70
2018-11-05T22:41:21.023Z,33.90
2018-11-05T22:43:49.123Z,33.80
2018-11-05T22:46:26.808Z,34.00
2018-11-05T22:48:54.816Z,33.80
2018-11-05T22:51:22.821Z,33.80
2018-11-05T22:53:50.858Z,33.80
2018-11-05T22:56:18.842Z,33.70
2018-11-05T22:58:47.413Z,34.00
2018-11-05T23:04:17.981Z,34.30
2018-11-05T23:06:52.359Z,34.00
2018-11-05T23:09:21.752Z,34.50
2018-11-05T23:11:53.059Z,34.20
2018-11-05T23:14:21.523Z,34.30
2018-11-05T23:16:53.755Z,34.50
2018-11-05T23:19:23.309Z,34.10
2018-11-05T23:21:52.272Z,34.10
2018-11-05T23:24:20.874Z,34.20
2018-11-05T23:26:50.108Z,34.30
2018-11-05T23:29:18.771Z,34.50
2018-11-05T23:31:46.696Z,34.80
2018-11-05T23:34:14.768Z,34.50
2018-11-05T23:36:42.777Z,34.10
2018-11-05T23:39:15.430Z,34.00
2018-11-05T23:41:43.608Z,33.90
2018-11-05T23:46:58.103Z,33.70
2018-11-05T23:49:26.387Z,33.60
2018-11-05T23:52:08.015Z,33.20
2018-11-05T23:54:37.037Z,33.00
2018-11-05T23:57:05.075Z,33.00
2018-11-05T23:59:32.944Z,33.30
